Time;durP1;ratioP1;P1;durP2;ratioP2;P2;SDS_P1;SDS_P2;PMS_P1;PMS_P2;Temp;Humidity;BMP_temperature;BMP_pressure;BME280_temperature;BME280_humidity;BME280_pressure;Samples;Min_cycle;Max_cycle;Signal;HPM_P1;HPM_P2
2021/04/02 05:02:55;;;;;;;;;;;;;;;;;;5106753;27;20403;-62
2021/04/02 05:05:29;;;;;;;1.35;1.25;;;;;;;;;;5109217;28;19912;-61
2021/04/02 05:07:56;;;;;;;7.40;1.90;;;;;;;;;;5106165;28;20030;-61
2021/04/02 05:10:23;;;;;;;14.27;3.65;;;;;;;;;;5104674;28;20561;-61
2021/04/02 05:12:49;;;;;;;12.63;3.08;;;;;;;;;;5105285;28;20488;-61
2021/04/02 05:15:16;;;;;;;3.97;2.03;;;;;;;;;;5105132;28;20401;-61
2021/04/02 05:17:42;;;;;;;17.38;2.95;;;;;;;;;;5107578;28;20512;-61
2021/04/02 05:20:10;;;;;;;2.00;1.17;;;;;;;;;;5102580;28;20023;-60
2021/04/02 05:22:36;;;;;;;3.63;1.58;;;;;;;;;;5103863;28;20035;-61
2021/04/02 05:25:03;;;;;;;13.25;3.58;;;;;;;;;;5104658;28;20020;-59
2021/04/02 05:27:29;;;;;;;0.88;0.88;;;;;;;;;;5104706;28;20032;-60
2021/04/02 05:29:55;;;;;;;16.80;3.67;;;;;;;;;;5088958;28;20037;-60
2021/04/02 05:32:22;;;;;;;16.30;5.20;;;;;;;;;;5107497;28;20043;-59
2021/04/02 05:34:48;;;;;;;3.88;2.15;;;;;;;;;;5102829;28;20145;-59
2021/04/02 05:37:14;;;;;;;13.52;3.65;;;;;;;;;;5100058;28;20058;-59
2021/04/02 05:39:40;;;;;;;2.05;0.90;;;;;;;;;;5103640;28;20016;-59
2021/04/02 05:42:07;;;;;;;5.20;2.28;;;;;;;;;;5103787;28;20510;-59
2021/04/02 05:44:34;;;;;;;5.78;3.60;;;;;;;;;;5106181;28;20031;-60
2021/04/02 05:47:08;;;;;;;5.38;3.20;;;;;;;;;;5106346;28;20020;-58
2021/04/02 05:49:34;;;;;;;6.82;2.83;;;;;;;;;;5102716;28;20046;-59
2021/04/02 05:52:01;;;;;;;31.70;3.97;;;;;;;;;;5103068;28;20047;-59
2021/04/02 05:54:29;;;;;;;2.28;1.60;;;;;;;;;;5103082;28;20532;-58
2021/04/02 05:56:55;;;;;;;0.77;0.63;;;;;;;;;;5103510;28;20035;-59
2021/04/02 05:59:22;;;;;;;5.05;2.28;;;;;;;;;;5106548;28;20544;-58
2021/04/02 06:01:49;;;;;;;16.73;4.18;;;;;;;;;;5101163;28;20174;-59
2021/04/02 06:04:15;;;;;;;3.42;0.88;;;;;;;;;;5089890;28;20032;-61
2021/04/02 06:06:41;;;;;;;26.98;6.10;;;;;;;;;;5089785;28;20020;-58
2021/04/02 06:09:08;;;;;;;6.18;4.82;;;;;;;;;;5087519;28;20043;-58
2021/04/02 06:11:34;;;;;;;11.50;3.80;;;;;;;;;;5088819;28;20032;-59
2021/04/02 06:14:00;;;;;;;7.50;2.03;;;;;;;;;;5080500;28;20486;-56
2021/04/02 06:16:26;;;;;;;4.65;2.00;;;;;;;;;;5086564;28;20138;-59
2021/04/02 06:18:56;;;;;;;0.52;0.52;;;;;;;;;;5089627;28;20035;-59
2021/04/02 06:21:25;;;;;;;2.03;1.65;;;;;;;;;;5076532;28;20028;-59
2021/04/02 06:23:52;;;;;;;4.43;2.42;;;;;;;;;;5090259;28;20036;-59
2021/04/02 06:26:18;;;;;;;0.82;0.70;;;;;;;;;;5092402;28;20684;-59
2021/04/02 06:28:44;;;;;;;4.80;2.28;;;;;;;;;;5088615;28;20043;-59
2021/04/02 06:31:11;;;;;;;7.13;0.75;;;;;;;;;;5087791;28;20031;-57
2021/04/02 06:33:47;;;;;;;10.15;3.67;;;;;;;;;;5078014;28;20714;-60
2021/04/02 06:36:17;;;;;;;2.03;1.88;;;;;;;;;;5089790;28;20020;-59
2021/04/02 06:38:44;;;;;;;19.92;3.72;;;;;;;;;;5090639;28;20043;-60
2021/04/02 06:41:10;;;;;;;0.68;0.68;;;;;;;;;;5092576;28;20039;-59
2021/04/02 06:43:41;;;;;;;0.38;0.38;;;;;;;;;;5089142;28;20028;-59
2021/04/02 06:46:11;;;;;;;0.10;0.10;;;;;;;;;;5090276;28;20036;-59
2021/04/02 06:48:37;;;;;;;5.85;1.55;;;;;;;;;;5088532;28;20058;-59
2021/04/02 06:51:04;;;;;;;0.95;0.75;;;;;;;;;;5088663;28;20043;-59
2021/04/02 06:53:32;;;;;;;0.65;0.40;;;;;;;;;;5092392;28;20035;-59
2021/04/02 06:56:02;;;;;;;6.82;2.38;;;;;;;;;;5089732;28;20031;-59
2021/04/02 06:58:29;;;;;;;3.00;1.83;;;;;;;;;;5088128;28;20025;-58
2021/04/02 07:00:56;;;;;;;10.27;2.13;;;;;;;;;;5084893;28;20040;-59
2021/04/02 07:03:22;;;;;;;1.88;1.70;;;;;;;;;;5083333;28;20024;-59
2021/04/02 07:05:49;;;;;;;12.27;2.60;;;;;;;;;;5089770;28;20089;-58
2021/04/02 07:08:17;;;;;;;1.42;1.33;;;;;;;;;;5083255;28;20019;-59
2021/04/02 07:10:45;;;;;;;2.10;1.17;;;;;;;;;;5086262;28;20584;-58
2021/04/02 07:13:12;;;;;;;11.05;2.17;;;;;;;;;;5086951;28;20035;-60
2021/04/02 07:15:38;;;;;;;7.88;2.20;;;;;;;;;;5088668;28;20032;-59
2021/04/02 07:18:06;;;;;;;8.70;2.45;;;;;;;;;;5088352;28;20559;-59
2021/04/02 07:20:33;;;;;;;12.40;3.88;;;;;;;;;;5091045;28;20393;-60
2021/04/02 07:22:59;;;;;;;0.20;0.20;;;;;;;;;;5089131;28;20032;-59
2021/04/02 07:25:26;;;;;;;15.90;3.40;;;;;;;;;;5088617;28;20393;-59
2021/04/02 07:27:52;;;;;;;11.23;1.73;;;;;;;;;;5088247;28;20074;-59
2021/04/02 07:30:21;;;;;;;1.33;0.60;;;;;;;;;;5088102;28;20032;-59
2021/04/02 07:32:47;;;;;;;7.30;2.22;;;;;;;;;;5089147;28;20738;-59
2021/04/02 07:35:17;;;;;;;3.33;0.90;;;;;;;;;;5085420;28;20032;-60
2021/04/02 07:37:48;;;;;;;36.58;6.20;;;;;;;;;;5087133;28;20031;-59
2021/04/02 07:40:14;;;;;;;2.08;1.23;;;;;;;;;;5088993;28;20387;-59
2021/04/02 07:42:40;;;;;;;14.63;4.13;;;;;;;;;;5088730;28;20020;-59
2021/04/02 07:45:07;;;;;;;0.15;0.15;;;;;;;;;;5086313;28;20430;-59
2021/04/02 07:47:33;;;;;;;2.03;1.15;;;;;;;;;;5089315;28;20604;-59
2021/04/02 07:50:02;;;;;;;17.45;2.75;;;;;;;;;;5090533;28;20044;-60
2021/04/02 07:52:31;;;;;;;0.52;0.52;;;;;;;;;;5085505;28;20409;-59
2021/04/02 07:55:08;;;;;;;11.85;2.47;;;;;;;;;;5087212;28;20047;-59
2021/04/02 07:57:55;;;;;;;14.98;2.58;;;;;;;;;;5089429;28;20024;-60
2021/04/02 08:00:32;;;;;;;2.42;0.85;;;;;;;;;;5088966;28;20039;-60
2021/04/02 08:03:17;;;;;;;4.10;2.90;;;;;;;;;;5078758;28;20493;-59
2021/04/02 08:05:58;;;;;;;2.90;0.80;;;;;;;;;;5086680;28;20035;-60
2021/04/02 08:08:25;;;;;;;6.18;0.75;;;;;;;;;;5086161;28;20047;-59
2021/04/02 08:11:01;;;;;;;5.50;1.27;;;;;;;;;;5088571;28;20020;-59
2021/04/02 08:13:28;;;;;;;1.08;0.98;;;;;;;;;;5088209;28;20028;-59
2021/04/02 08:15:56;;;;;;;10.27;1.85;;;;;;;;;;5087046;28;20032;-59
2021/04/02 08:18:25;;;;;;;14.80;3.03;;;;;;;;;;5086311;28;20024;-60
2021/04/02 08:20:55;;;;;;;20.30;2.35;;;;;;;;;;5078807;28;20028;-63
2021/04/02 08:23:22;;;;;;;14.55;1.65;;;;;;;;;;5090808;28;20028;-70
2021/04/02 08:25:55;;;;;;;20.00;2.45;;;;;;;;;;5086744;28;20157;-59
2021/04/02 08:28:26;;;;;;;9.77;3.72;;;;;;;;;;5086918;28;20115;-59
2021/04/02 08:30:53;;;;;;;8.65;1.73;;;;;;;;;;5086606;28;20405;-59
2021/04/02 08:33:20;;;;;;;30.52;4.22;;;;;;;;;;5086392;28;20051;-59
2021/04/02 08:35:46;;;;;;;16.15;4.13;;;;;;;;;;5087665;28;20404;-60
2021/04/02 08:38:12;;;;;;;15.15;3.72;;;;;;;;;;5090521;28;20031;-58
2021/04/02 08:40:39;;;;;;;1.13;1.08;;;;;;;;;;5077043;28;20047;-57
2021/04/02 08:43:17;;;;;;;1.55;0.90;;;;;;;;;;5081867;28;20059;-56
2021/04/02 08:45:43;;;;;;;0.10;0.10;;;;;;;;;;5083743;28;20504;-58
2021/04/02 08:48:20;;;;;;;1.33;1.20;;;;;;;;;;5078527;28;20031;-57
2021/04/02 08:50:49;;;;;;;5.47;1.77;;;;;;;;;;5080219;28;20405;-57
2021/04/02 08:53:15;;;;;;;20.73;2.45;;;;;;;;;;5081252;28;20024;-57
2021/04/02 08:55:43;;;;;;;24.38;4.93;;;;;;;;;;5082283;28;20037;-58
2021/04/02 08:58:10;;;;;;;9.95;2.22;;;;;;;;;;5085021;28;20481;-55
2021/04/02 09:00:36;;;;;;;13.65;2.38;;;;;;;;;;5087856;28;20020;-58
2021/04/02 09:03:03;;;;;;;26.58;0.85;;;;;;;;;;5088417;28;20024;-58
2021/04/02 09:05:29;;;;;;;0.63;0.63;;;;;;;;;;5089917;28;20062;-57
2021/04/02 09:07:58;;;;;;;9.52;2.38;;;;;;;;;;5088632;28;20024;-58
2021/04/02 09:10:25;;;;;;;3.63;2.00;;;;;;;;;;5088020;28;20024;-59
2021/04/02 09:12:52;;;;;;;4.45;1.50;;;;;;;;;;5088187;28;20077;-58
2021/04/02 09:15:22;;;;;;;16.50;3.58;;;;;;;;;;5085533;28;20456;-57
2021/04/02 09:17:49;;;;;;;6.03;1.63;;;;;;;;;;5087187;28;20047;-58
2021/04/02 09:20:15;;;;;;;7.18;2.10;;;;;;;;;;5089306;28;20434;-56
2021/04/02 09:22:45;;;;;;;12.00;2.70;;;;;;;;;;5086984;28;20050;-60
2021/04/02 09:25:15;;;;;;;3.38;1.02;;;;;;;;;;5086976;28;20187;-58
2021/04/02 09:27:41;;;;;;;22.13;3.30;;;;;;;;;;5087764;28;20034;-58
2021/04/02 09:30:08;;;;;;;7.13;1.30;;;;;;;;;;5085686;28;20481;-58
2021/04/02 09:32:34;;;;;;;2.25;1.55;;;;;;;;;;5089594;28;20039;-59
2021/04/02 09:35:02;;;;;;;6.00;2.97;;;;;;;;;;5089110;28;20073;-59
2021/04/02 09:37:29;;;;;;;15.85;3.58;;;;;;;;;;5086973;28;20036;-59
2021/04/02 09:39:58;;;;;;;2.28;1.00;;;;;;;;;;5090691;28;20020;-59
2021/04/02 09:42:26;;;;;;;0.55;0.55;;;;;;;;;;5077617;28;20078;-59
2021/04/02 09:44:53;;;;;;;12.70;2.30;;;;;;;;;;5091552;28;20048;-58
2021/04/02 09:47:19;;;;;;;6.10;1.90;;;;;;;;;;5093487;28;20035;-57
2021/04/02 09:49:46;;;;;;;21.65;3.22;;;;;;;;;;5091948;28;20024;-56
2021/04/02 09:52:12;;;;;;;4.50;1.40;;;;;;;;;;5091191;28;20055;-57
2021/04/02 09:54:38;;;;;;;13.32;4.10;;;;;;;;;;5090574;28;20385;-56
2021/04/02 09:57:06;;;;;;;13.75;2.53;;;;;;;;;;5090269;28;20016;-59
2021/04/02 09:59:32;;;;;;;36.53;8.77;;;;;;;;;;5092553;28;20074;-56
2021/04/02 10:01:59;;;;;;;10.25;2.17;;;;;;;;;;5076981;28;20050;-58
2021/04/02 10:04:26;;;;;;;7.07;3.40;;;;;;;;;;5085916;28;20054;-57
2021/04/02 10:06:52;;;;;;;5.25;2.00;;;;;;;;;;5091546;28;20032;-57
2021/04/02 10:09:18;;;;;;;8.38;2.47;;;;;;;;;;5090120;28;20020;-58
2021/04/02 10:11:45;;;;;;;10.30;2.67;;;;;;;;;;5090667;28;20148;-58
2021/04/02 10:14:12;;;;;;;8.57;1.73;;;;;;;;;;5093766;28;20034;-59
2021/04/02 10:16:39;;;;;;;20.23;3.15;;;;;;;;;;5089844;28;20028;-59
2021/04/02 10:19:05;;;;;;;9.38;1.88;;;;;;;;;;5089880;28;20026;-59
2021/04/02 10:21:31;;;;;;;4.20;1.00;;;;;;;;;;5089803;28;20032;-58
2021/04/02 10:23:58;;;;;;;0.52;0.40;;;;;;;;;;5073782;28;20022;-58
2021/04/02 10:26:24;;;;;;;3.35;1.33;;;;;;;;;;5093144;28;20031;-58
2021/04/02 10:28:50;;;;;;;7.13;3.28;;;;;;;;;;5091088;28;20393;-56
2021/04/02 10:31:16;;;;;;;18.77;2.00;;;;;;;;;;5089433;28;20044;-58
2021/04/02 10:33:42;;;;;;;3.00;1.08;;;;;;;;;;5090493;28;20017;-59
2021/04/02 10:36:09;;;;;;;14.68;2.55;;;;;;;;;;5090150;28;20624;-58
2021/04/02 10:38:35;;;;;;;19.38;2.05;;;;;;;;;;5091618;28;20031;-58
2021/04/02 10:41:01;;;;;;;5.18;1.23;;;;;;;;;;5080804;28;20043;-59
2021/04/02 10:43:28;;;;;;;7.78;1.95;;;;;;;;;;5085258;28;20927;-56
2021/04/02 10:45:54;;;;;;;8.73;2.70;;;;;;;;;;5089563;28;20050;-59
2021/04/02 10:48:20;;;;;;;3.08;1.00;;;;;;;;;;5089186;28;20042;-57
2021/04/02 10:50:47;;;;;;;6.40;2.47;;;;;;;;;;5091414;28;20028;-58
2021/04/02 10:53:13;;;;;;;4.20;1.23;;;;;;;;;;5091410;28;20012;-59
2021/04/02 10:55:40;;;;;;;8.95;2.97;;;;;;;;;;5088234;28;20061;-58
2021/04/02 10:58:06;;;;;;;8.35;2.28;;;;;;;;;;5089615;28;20051;-58
2021/04/02 11:00:34;;;;;;;13.02;2.10;;;;;;;;;;5089078;28;20028;-58
2021/04/02 11:03:01;;;;;;;9.95;1.75;;;;;;;;;;5090666;28;20075;-57
2021/04/02 11:05:28;;;;;;;9.63;2.40;;;;;;;;;;5092459;28;20032;-58
2021/04/02 11:07:54;;;;;;;10.05;3.13;;;;;;;;;;5088795;28;20175;-59
2021/04/02 11:10:21;;;;;;;2.90;1.63;;;;;;;;;;5089911;28;20027;-58
2021/04/02 11:12:47;;;;;;;7.55;2.42;;;;;;;;;;5088872;28;20032;-59
2021/04/02 11:15:13;;;;;;;20.48;4.55;;;;;;;;;;5090477;28;20020;-58
2021/04/02 11:17:40;;;;;;;7.25;1.38;;;;;;;;;;5091012;28;20493;-57
2021/04/02 11:20:07;;;;;;;2.90;1.55;;;;;;;;;;5092115;28;20401;-58
2021/04/02 11:22:33;;;;;;;7.63;1.67;;;;;;;;;;5088793;28;20028;-58
2021/04/02 11:24:59;;;;;;;3.75;1.63;;;;;;;;;;5089910;28;20424;-58
2021/04/02 11:27:25;;;;;;;6.72;1.02;;;;;;;;;;5089006;28;20066;-60
2021/04/02 11:29:55;;;;;;;16.17;3.13;;;;;;;;;;5089758;28;20795;-58
2021/04/02 11:32:21;;;;;;;0.70;0.57;;;;;;;;;;5090366;28;20048;-59
2021/04/02 11:34:48;;;;;;;5.13;2.25;;;;;;;;;;5087706;28;20031;-58
2021/04/02 11:37:14;;;;;;;6.50;1.73;;;;;;;;;;5087764;28;20028;-59
2021/04/02 11:39:41;;;;;;;14.45;2.95;;;;;;;;;;5089229;28;20036;-58
2021/04/02 11:42:08;;;;;;;17.45;0.95;;;;;;;;;;5073107;28;20124;-58
2021/04/02 11:44:34;;;;;;;19.52;2.88;;;;;;;;;;5089958;28;20024;-58
2021/04/02 11:47:00;;;;;;;5.85;1.58;;;;;;;;;;5090669;28;20035;-60
2021/04/02 11:49:26;;;;;;;4.20;1.85;;;;;;;;;;5086637;28;20016;-58
2021/04/02 11:51:53;;;;;;;7.47;1.55;;;;;;;;;;5089017;28;20032;-59
2021/04/02 11:54:19;;;;;;;2.38;1.67;;;;;;;;;;5088975;28;20077;-58
2021/04/02 11:56:47;;;;;;;14.57;2.10;;;;;;;;;;5089077;28;20132;-58
2021/04/02 11:59:14;;;;;;;11.68;2.33;;;;;;;;;;5089256;28;20012;-58
2021/04/02 12:01:41;;;;;;;11.43;1.63;;;;;;;;;;5089351;28;20040;-58
2021/04/02 12:04:09;;;;;;;3.47;1.42;;;;;;;;;;5086218;28;20012;-58
2021/04/02 12:06:36;;;;;;;7.13;2.53;;;;;;;;;;5087566;28;20062;-57
2021/04/02 12:09:02;;;;;;;4.47;1.13;;;;;;;;;;5089016;28;20410;-57
2021/04/02 12:11:28;;;;;;;23.35;3.13;;;;;;;;;;5087576;28;20071;-58
2021/04/02 12:13:54;;;;;;;11.80;1.73;;;;;;;;;;5090016;28;20020;-58
2021/04/02 12:16:20;;;;;;;13.65;2.28;;;;;;;;;;5089390;28;20127;-57
2021/04/02 12:18:46;;;;;;;9.68;1.17;;;;;;;;;;5088379;28;20081;-58
2021/04/02 12:21:12;;;;;;;16.27;2.92;;;;;;;;;;5088695;28;20668;-57
2021/04/02 12:23:38;;;;;;;4.53;1.23;;;;;;;;;;5089261;28;20020;-58
2021/04/02 12:26:05;;;;;;;10.93;4.80;;;;;;;;;;5090807;28;20044;-58
2021/04/02 12:28:32;;;;;;;3.22;1.65;;;;;;;;;;5086523;28;20016;-57
2021/04/02 12:30:59;;;;;;;14.32;2.47;;;;;;;;;;5088971;28;20040;-59
2021/04/02 12:33:25;;;;;;;0.80;0.80;;;;;;;;;;5088755;28;20024;-58
2021/04/02 12:35:51;;;;;;;5.53;1.75;;;;;;;;;;5087700;28;20036;-58
2021/04/02 12:38:17;;;;;;;9.73;1.40;;;;;;;;;;5090529;28;20389;-56
2021/04/02 12:40:43;;;;;;;12.52;2.55;;;;;;;;;;5085428;28;20508;-56
2021/04/02 12:43:10;;;;;;;3.05;1.88;;;;;;;;;;5088813;28;20017;-57
2021/04/02 12:45:36;;;;;;;14.75;1.80;;;;;;;;;;5088780;28;20378;-58
2021/04/02 12:48:02;;;;;;;3.40;1.55;;;;;;;;;;5088523;28;20026;-58
2021/04/02 12:50:28;;;;;;;4.47;1.58;;;;;;;;;;5090678;28;20047;-58
2021/04/02 12:52:55;;;;;;;10.82;2.58;;;;;;;;;;5088386;28;20020;-59
2021/04/02 12:55:30;;;;;;;16.13;3.38;;;;;;;;;;5087858;28;20024;-59
2021/04/02 12:57:56;;;;;;;5.63;0.90;;;;;;;;;;5077233;28;20447;-59
2021/04/02 13:00:23;;;;;;;2.20;1.20;;;;;;;;;;5087924;28;20032;-59
2021/04/02 13:02:50;;;;;;;12.10;1.95;;;;;;;;;;5086547;28;20468;-59
2021/04/02 13:05:16;;;;;;;3.40;1.15;;;;;;;;;;5088626;28;20035;-58
2021/04/02 13:07:43;;;;;;;17.65;2.30;;;;;;;;;;5086374;28;20047;-59
2021/04/02 13:10:10;;;;;;;7.13;1.88;;;;;;;;;;5087763;28;20074;-59
2021/04/02 13:12:38;;;;;;;0.10;0.10;;;;;;;;;;5076849;28;20575;-59
2021/04/02 13:15:04;;;;;;;15.23;2.35;;;;;;;;;;5091421;28;20031;-59
2021/04/02 13:17:30;;;;;;;3.58;2.03;;;;;;;;;;5094268;28;20122;-58
2021/04/02 13:19:56;;;;;;;12.57;2.55;;;;;;;;;;5092184;28;20059;-59
2021/04/02 13:22:23;;;;;;;11.07;1.10;;;;;;;;;;5091691;28;20069;-59
2021/04/02 13:24:49;;;;;;;4.60;0.80;;;;;;;;;;5090436;28;20507;-59
2021/04/02 13:27:15;;;;;;;1.35;1.25;;;;;;;;;;5091783;28;20458;-59
2021/04/02 13:29:41;;;;;;;9.70;1.27;;;;;;;;;;5092490;28;20020;-57
2021/04/02 13:32:07;;;;;;;7.88;1.83;;;;;;;;;;5093198;28;20127;-59
2021/04/02 13:34:33;;;;;;;4.90;2.25;;;;;;;;;;5090373;28;20028;-59
2021/04/02 13:37:00;;;;;;;2.85;0.70;;;;;;;;;;5090547;28;20020;-60
2021/04/02 13:39:26;;;;;;;8.65;2.05;;;;;;;;;;5091339;28;20101;-59
2021/04/02 13:41:52;;;;;;;4.68;1.02;;;;;;;;;;5092052;28;20570;-59
2021/04/02 13:44:18;;;;;;;10.13;3.33;;;;;;;;;;5093987;28;20099;-61
2021/04/02 13:46:44;;;;;;;11.10;1.42;;;;;;;;;;5092161;28;20066;-60
2021/04/02 13:49:10;;;;;;;7.05;1.25;;;;;;;;;;5092193;28;20028;-59
2021/04/02 13:51:36;;;;;;;2.67;0.68;;;;;;;;;;5088831;28;20146;-58
2021/04/02 13:54:02;;;;;;;8.15;2.33;;;;;;;;;;5076075;28;20073;-60
2021/04/02 13:56:29;;;;;;;7.68;1.73;;;;;;;;;;5072112;28;20033;-61
2021/04/02 13:58:55;;;;;;;0.38;0.13;;;;;;;;;;5086295;28;20442;-59
2021/04/02 14:01:21;;;;;;;6.47;2.30;;;;;;;;;;5083821;28;20060;-59
2021/04/02 14:03:47;;;;;;;2.70;0.90;;;;;;;;;;5083645;28;20038;-59
2021/04/02 14:06:13;;;;;;;2.72;1.02;;;;;;;;;;5085401;28;20024;-59
2021/04/02 14:08:40;;;;;;;6.40;1.85;;;;;;;;;;5088347;28;20109;-59
2021/04/02 14:11:06;;;;;;;7.60;3.28;;;;;;;;;;5087938;28;20040;-60
2021/04/02 14:13:32;;;;;;;8.43;2.22;;;;;;;;;;5085038;28;20020;-60
2021/04/02 14:15:58;;;;;;;2.72;0.68;;;;;;;;;;5085435;28;20052;-58
2021/04/02 14:18:24;;;;;;;5.78;3.03;;;;;;;;;;5086124;28;20404;-59
2021/04/02 14:20:50;;;;;;;11.63;1.77;;;;;;;;;;5086226;28;20033;-59
2021/04/02 14:23:17;;;;;;;0.90;0.85;;;;;;;;;;5087773;28;20028;-59
2021/04/02 14:25:43;;;;;;;0.98;0.77;;;;;;;;;;5085187;28;20150;-59
2021/04/02 14:28:10;;;;;;;3.83;1.48;;;;;;;;;;5085324;28;20055;-58
2021/04/02 14:30:38;;;;;;;16.20;1.80;;;;;;;;;;5086483;28;20024;-59
2021/04/02 14:33:04;;;;;;;16.73;1.63;;;;;;;;;;5085119;28;20043;-59
2021/04/02 14:35:31;;;;;;;10.68;2.97;;;;;;;;;;5088484;28;20058;-59
2021/04/02 14:38:02;;;;;;;10.02;1.75;;;;;;;;;;5086255;28;20090;-59
2021/04/02 14:40:28;;;;;;;1.45;0.52;;;;;;;;;;5082183;28;20040;-60
2021/04/02 14:42:54;;;;;;;2.53;1.80;;;;;;;;;;5085115;28;20016;-59
2021/04/02 14:45:20;;;;;;;6.75;0.98;;;;;;;;;;5090423;28;20139;-59
2021/04/02 14:47:47;;;;;;;7.22;0.80;;;;;;;;;;5088671;28;20027;-59
2021/04/02 14:50:14;;;;;;;13.70;2.83;;;;;;;;;;5090699;28;20024;-59
2021/04/02 14:52:40;;;;;;;9.48;2.55;;;;;;;;;;5087902;28;20027;-59
2021/04/02 14:55:07;;;;;;;0.80;0.60;;;;;;;;;;5088324;28;20103;-58
2021/04/02 14:57:34;;;;;;;3.92;1.52;;;;;;;;;;5087479;28;20024;-59
2021/04/02 15:00:01;;;;;;;12.55;3.67;;;;;;;;;;5087753;28;20028;-61
2021/04/02 15:02:30;;;;;;;13.13;1.67;;;;;;;;;;5079054;28;20094;-58
2021/04/02 15:04:57;;;;;;;7.30;1.90;;;;;;;;;;5074724;28;20028;-59
2021/04/02 15:07:23;;;;;;;12.07;1.58;;;;;;;;;;5075129;28;20028;-59
2021/04/02 15:09:49;;;;;;;8.18;2.45;;;;;;;;;;5073868;28;20540;-59
2021/04/02 15:12:16;;;;;;;8.38;1.38;;;;;;;;;;5073257;28;20052;-59
2021/04/02 15:14:42;;;;;;;3.47;2.17;;;;;;;;;;5072448;28;20450;-58
2021/04/02 15:17:08;;;;;;;7.30;2.10;;;;;;;;;;5073541;28;20033;-58
2021/04/02 15:19:34;;;;;;;6.35;1.48;;;;;;;;;;5074511;28;20146;-60
2021/04/02 15:22:00;;;;;;;10.85;2.65;;;;;;;;;;5076641;28;20027;-60
2021/04/02 15:24:26;;;;;;;2.55;1.45;;;;;;;;;;5075634;28;20089;-59
2021/04/02 15:26:53;;;;;;;6.53;1.65;;;;;;;;;;5074554;28;20032;-57
2021/04/02 15:29:19;;;;;;;9.88;1.88;;;;;;;;;;5072860;28;20028;-57
2021/04/02 15:31:45;;;;;;;2.85;1.48;;;;;;;;;;5074512;28;20502;-57
2021/04/02 15:34:11;;;;;;;10.00;2.95;;;;;;;;;;5072560;28;20016;-58
2021/04/02 15:36:37;;;;;;;16.27;1.80;;;;;;;;;;5075278;28;20712;-58
2021/04/02 15:39:04;;;;;;;4.63;0.47;;;;;;;;;;5070939;28;20028;-58
2021/04/02 15:41:30;;;;;;;3.88;0.93;;;;;;;;;;5070088;28;20021;-58
2021/04/02 15:43:56;;;;;;;3.30;0.80;;;;;;;;;;5077485;28;20414;-58
2021/04/02 15:46:22;;;;;;;6.38;1.42;;;;;;;;;;5074308;28;20024;-58
2021/04/02 15:48:48;;;;;;;18.33;1.92;;;;;;;;;;5075417;28;20649;-58
2021/04/02 15:51:14;;;;;;;8.88;1.27;;;;;;;;;;5069208;28;20041;-57
2021/04/02 15:53:41;;;;;;;11.20;2.67;;;;;;;;;;5068358;28;20435;-58
2021/04/02 15:56:07;;;;;;;11.63;2.67;;;;;;;;;;5070463;28;20038;-58
2021/04/02 15:58:33;;;;;;;6.43;1.48;;;;;;;;;;5071237;28;20058;-59
2021/04/02 16:00:59;;;;;;;3.85;1.55;;;;;;;;;;5073849;28;20040;-58
2021/04/02 16:03:25;;;;;;;2.28;1.10;;;;;;;;;;5075531;28;20550;-57
2021/04/02 16:05:51;;;;;;;1.52;1.40;;;;;;;;;;5065822;28;20028;-56
2021/04/02 16:08:17;;;;;;;9.05;2.20;;;;;;;;;;5068740;28;20399;-57
2021/04/02 16:10:43;;;;;;;7.25;1.25;;;;;;;;;;5069968;28;20024;-56
2021/04/02 16:13:16;;;;;;;6.85;1.60;;;;;;;;;;5069232;28;20075;-58
2021/04/02 16:15:42;;;;;;;2.20;1.40;;;;;;;;;;5069207;28;20033;-58
2021/04/02 16:18:08;;;;;;;13.30;1.88;;;;;;;;;;5067977;28;20028;-58
2021/04/02 16:20:35;;;;;;;10.55;2.47;;;;;;;;;;5070279;28;20017;-58
2021/04/02 16:23:01;;;;;;;6.95;2.42;;;;;;;;;;5072351;28;20109;-58
2021/04/02 16:25:28;;;;;;;1.45;0.73;;;;;;;;;;5071932;28;20119;-58
2021/04/02 16:27:54;;;;;;;17.80;3.03;;;;;;;;;;5080526;28;20521;-58
2021/04/02 16:30:21;;;;;;;14.50;2.22;;;;;;;;;;5087238;28;20036;-58
2021/04/02 16:32:47;;;;;;;3.10;2.38;;;;;;;;;;5080449;28;20036;-58
2021/04/02 16:35:14;;;;;;;1.38;0.85;;;;;;;;;;5081327;28;20024;-58
2021/04/02 16:37:40;;;;;;;7.57;2.90;;;;;;;;;;5081275;28;20509;-58
2021/04/02 16:40:07;;;;;;;11.77;1.95;;;;;;;;;;5085415;28;20115;-56
2021/04/02 16:42:34;;;;;;;5.05;1.92;;;;;;;;;;5086757;28;20027;-58
2021/04/02 16:45:00;;;;;;;11.40;4.93;;;;;;;;;;5083796;28;20036;-57
2021/04/02 16:47:26;;;;;;;14.07;2.00;;;;;;;;;;5080554;28;20028;-57
2021/04/02 16:49:52;;;;;;;3.30;1.85;;;;;;;;;;5084885;28;20020;-58
2021/04/02 16:52:21;;;;;;;3.72;1.23;;;;;;;;;;5084944;28;20028;-58
2021/04/02 16:54:49;;;;;;;7.50;1.67;;;;;;;;;;5084870;28;20477;-58
2021/04/02 16:57:15;;;;;;;0.35;0.30;;;;;;;;;;5086778;28;20025;-59
2021/04/02 16:59:41;;;;;;;5.20;1.48;;;;;;;;;;5088135;28;20020;-59
2021/04/02 17:02:08;;;;;;;11.05;1.70;;;;;;;;;;5089737;28;20565;-59
2021/04/02 17:04:34;;;;;;;3.15;1.38;;;;;;;;;;5085987;28;20020;-56
2021/04/02 17:07:00;;;;;;;1.50;0.73;;;;;;;;;;5088720;28;20111;-57
2021/04/02 17:09:26;;;;;;;3.20;1.45;;;;;;;;;;5089025;28;20024;-59
2021/04/02 17:11:52;;;;;;;2.60;2.08;;;;;;;;;;5088296;28;20032;-59
2021/04/02 17:14:19;;;;;;;1.42;1.35;;;;;;;;;;5089456;28;20016;-60
2021/04/02 17:16:45;;;;;;;10.63;2.72;;;;;;;;;;5088728;28;20436;-59
2021/04/02 17:19:12;;;;;;;11.38;2.70;;;;;;;;;;5087254;28;20428;-59
2021/04/02 17:21:38;;;;;;;0.93;0.93;;;;;;;;;;5088525;28;20035;-60
2021/04/02 17:24:05;;;;;;;0.95;0.95;;;;;;;;;;5086369;28;20024;-59
2021/04/02 17:26:31;;;;;;;9.13;3.03;;;;;;;;;;5087690;28;20115;-59
2021/04/02 17:28:58;;;;;;;4.50;4.20;;;;;;;;;;5086471;28;20024;-59
2021/04/02 17:31:24;;;;;;;1.65;0.70;;;;;;;;;;5085123;28;20030;-59
2021/04/02 17:33:50;;;;;;;7.55;1.67;;;;;;;;;;5087161;28;20517;-59
2021/04/02 17:36:16;;;;;;;17.25;0.63;;;;;;;;;;5082144;28;20021;-61
2021/04/02 17:38:42;;;;;;;3.08;1.05;;;;;;;;;;5085064;28;20370;-58
2021/04/02 17:41:09;;;;;;;1.98;1.38;;;;;;;;;;5080390;28;20375;-59
2021/04/02 17:43:35;;;;;;;9.50;1.50;;;;;;;;;;5081187;28;20028;-58
2021/04/02 17:46:01;;;;;;;1.27;0.88;;;;;;;;;;5083083;28;20126;-57
2021/04/02 17:48:28;;;;;;;2.65;0.47;;;;;;;;;;5085401;28;20111;-56
2021/04/02 17:50:54;;;;;;;1.65;0.90;;;;;;;;;;5083920;28;20028;-58
2021/04/02 17:53:20;;;;;;;4.35;2.22;;;;;;;;;;5089524;28;20371;-59
2021/04/02 17:55:47;;;;;;;1.75;0.85;;;;;;;;;;5086157;28;20439;-60
2021/04/02 17:58:14;;;;;;;3.50;1.63;;;;;;;;;;5085215;28;20085;-61
2021/04/02 18:00:40;;;;;;;8.32;1.88;;;;;;;;;;5086909;28;20081;-59
2021/04/02 18:03:06;;;;;;;16.40;3.63;;;;;;;;;;5091467;28;20036;-60
2021/04/02 18:05:33;;;;;;;6.13;1.35;;;;;;;;;;5092675;28;20062;-59
2021/04/02 18:07:59;;;;;;;0.60;0.40;;;;;;;;;;5090886;28;20032;-59
2021/04/02 18:10:26;;;;;;;7.78;2.60;;;;;;;;;;5089619;28;20102;-59
2021/04/02 18:12:52;;;;;;;0.47;0.20;;;;;;;;;;5090637;28;20039;-58
2021/04/02 18:15:18;;;;;;;9.65;1.67;;;;;;;;;;5087891;28;20027;-59
2021/04/02 18:17:45;;;;;;;1.92;1.15;;;;;;;;;;5092679;28;20024;-57
2021/04/02 18:20:11;;;;;;;0.10;0.10;;;;;;;;;;5089287;28;20070;-58
2021/04/02 18:22:38;;;;;;;5.45;1.42;;;;;;;;;;5080729;28;20042;-60
2021/04/02 18:25:05;;;;;;;4.38;1.70;;;;;;;;;;5080535;28;20487;-57
2021/04/02 18:27:32;;;;;;;2.05;1.48;;;;;;;;;;5076213;28;20554;-58
2021/04/02 18:29:58;;;;;;;7.78;2.03;;;;;;;;;;5071568;28;20952;-58
2021/04/02 18:32:25;;;;;;;0.30;0.30;;;;;;;;;;5074150;28;20127;-61
2021/04/02 18:34:51;;;;;;;0.47;0.47;;;;;;;;;;5073934;28;20021;-59
2021/04/02 18:37:17;;;;;;;1.27;0.43;;;;;;;;;;5073291;28;20454;-59
2021/04/02 18:39:43;;;;;;;5.00;1.75;;;;;;;;;;5074697;28;20097;-59
2021/04/02 18:42:10;;;;;;;6.05;0.50;;;;;;;;;;5067183;28;20585;-58
2021/04/02 18:44:36;;;;;;;0.70;0.63;;;;;;;;;;5071950;28;20028;-57
2021/04/02 18:47:03;;;;;;;4.72;1.55;;;;;;;;;;5078278;28;20047;-59
2021/04/02 18:49:29;;;;;;;0.32;0.28;;;;;;;;;;5070695;28;20017;-59
2021/04/02 18:51:55;;;;;;;0.30;0.30;;;;;;;;;;5068675;28;20036;-58
2021/04/02 18:54:22;;;;;;;0.22;0.22;;;;;;;;;;5075065;28;20039;-61
2021/04/02 18:56:49;;;;;;;13.90;3.17;;;;;;;;;;5074132;28;20035;-59
2021/04/02 18:59:16;;;;;;;7.88;3.03;;;;;;;;;;5076881;28;20406;-60
2021/04/02 19:01:42;;;;;;;9.27;5.25;;;;;;;;;;5069671;28;20056;-60
2021/04/02 19:04:08;;;;;;;2.05;0.88;;;;;;;;;;5076396;28;20020;-59
2021/04/02 19:06:34;;;;;;;15.88;2.47;;;;;;;;;;5071354;28;20173;-59
2021/04/02 19:09:01;;;;;;;4.78;1.45;;;;;;;;;;5070333;28;20039;-57
2021/04/02 19:11:27;;;;;;;0.10;0.10;;;;;;;;;;5068992;28;20041;-57
2021/04/02 19:13:53;;;;;;;4.95;1.40;;;;;;;;;;5072755;28;20101;-59
2021/04/02 19:16:20;;;;;;;0.20;0.20;;;;;;;;;;5072694;28;20115;-56
2021/04/02 19:18:46;;;;;;;1.80;1.27;;;;;;;;;;5075358;28;20260;-57
2021/04/02 19:21:12;;;;;;;5.35;2.05;;;;;;;;;;5080047;28;20397;-59
2021/04/02 19:23:39;;;;;;;1.83;1.35;;;;;;;;;;5082532;28;20066;-58
2021/04/02 19:26:05;;;;;;;2.70;0.52;;;;;;;;;;5083851;28;20051;-59
2021/04/02 19:28:32;;;;;;;11.80;3.13;;;;;;;;;;5078720;28;20041;-58
2021/04/02 19:30:58;;;;;;;3.05;1.77;;;;;;;;;;5075660;28;20054;-58
2021/04/02 19:33:25;;;;;;;13.35;1.27;;;;;;;;;;5078394;28;20028;-61
2021/04/02 19:35:51;;;;;;;0.88;0.35;;;;;;;;;;5073779;28;20083;-59
2021/04/02 19:38:17;;;;;;;6.75;1.10;;;;;;;;;;5083416;28;20107;-59